This is the latest recevied weather packets stored in our database for station/object KR4KUV. If no packets are shown the sender has not sent any weather packets the latest 10 day(s).
| Time | Temp. | Humidity | Pressure | Rain* | Wind** | Luminosity | Snow |
|---|---|---|---|---|---|---|---|
| 1787673635 | 25.56° C | 62% | 1021.7 hPa | 0 mm | - | 652 W/m² | - |
| 1787673334 | 25° C | 64% | 1021.6 hPa | 0 mm | - | 639 W/m² | - |
| 1787673029 | 25° C | 64% | 1021.5 hPa | 0 mm | - | 404 W/m² | - |
| 1787672723 | 25° C | 66% | 1021.7 hPa | 0 mm | - | 333 W/m² | - |
| 1787672419 | 25° C | 71% | 1021.8 hPa | 0 mm | - | 504 W/m² | - |
| 1787672113 | 24.44° C | 68% | 1021.9 hPa | 0 mm | - | 437 W/m² | - |
| 1787671812 | 23.89° C | 67% | 1021.9 hPa | 0 mm | - | 434 W/m² | - |
| 1787671508 | 24.44° C | 66% | 1021.9 hPa | 0 mm | - | 301 W/m² | - |
| 1787671203 | 23.89° C | 69% | 1021.9 hPa | 0 mm | - | 338 W/m² | - |
| 1787670898 | 23.89° C | 69% | 1021.9 hPa | 0 mm | - | 307 W/m² | - |
| 1787670594 | 23.33° C | 69% | 1021.9 hPa | 0 mm | - | 322 W/m² | - |
| 1787670293 | 23.33° C | 70% | 1022 hPa | 0 mm | - | 317 W/m² | - |
| 1787669987 | 23.33° C | 69% | 1022 hPa | 0 mm | - | 270 W/m² | - |
| 1787669683 | 23.33° C | 70% | 1022 hPa | 0 mm | - | 250 W/m² | - |
| 1787669377 | 23.33° C | 71% | 1022 hPa | 0 mm | - | 253 W/m² | - |
| 1787669073 | 23.33° C | 73% | 1021.8 hPa | 0 mm | - | 243 W/m² | - |
| 1787668769 | 22.78° C | 74% | 1021.9 hPa | 0 mm | - | 248 W/m² | - |
| 1787668465 | 22.22° C | 76% | 1022 hPa | 0 mm | - | 239 W/m² | - |
| 1787668160 | 21.67° C | 75% | 1022.2 hPa | 0 mm | - | 232 W/m² | - |
| 1787667855 | 21.67° C | 75% | 1022 hPa | 0 mm | - | 221 W/m² | - |
| 1787667551 | 21.67° C | 76% | 1022.2 hPa | 0 mm | - | 200 W/m² | - |
| 1787667247 | 21.67° C | 79% | 1022.2 hPa | 0 mm | - | 191 W/m² | - |
| 1787666946 | 21.67° C | 77% | 1022.1 hPa | 0 mm | - | 188 W/m² | - |
| 1787666643 | 21.11° C | 78% | 1022.1 hPa | 0 mm | - | 181 W/m² | - |
| 1787666341 | 21.11° C | 78% | 1022 hPa | 0 mm | - | 183 W/m² | - |
* Rain latest hour (hover to see other rain measurements)
** Current wind speed in m/s (hover to see current wind gust speed)